createdAt,value
2018-06-25T00:00:39.446Z,17.62
2018-06-25T00:01:39.391Z,17.62
2018-06-25T00:02:39.367Z,17.62
2018-06-25T00:03:39.392Z,17.62
2018-06-25T00:04:39.461Z,17.62
2018-06-25T00:05:39.378Z,17.69
2018-06-25T00:06:39.373Z,17.69
2018-06-25T00:07:39.369Z,17.69
2018-06-25T00:08:39.417Z,17.69
2018-06-25T00:09:39.357Z,17.69
2018-06-25T00:10:39.348Z,17.62
2018-06-25T00:11:39.365Z,17.69
2018-06-25T00:12:39.359Z,17.69
2018-06-25T00:13:39.463Z,17.69
2018-06-25T00:14:39.347Z,17.62
2018-06-25T00:15:39.375Z,17.62
2018-06-25T00:16:39.360Z,17.62
2018-06-25T00:17:39.370Z,17.56
2018-06-25T00:18:39.365Z,17.56
2018-06-25T00:19:39.390Z,17.5
2018-06-25T00:20:39.366Z,17.56
2018-06-25T00:21:39.374Z,17.5
2018-06-25T00:22:39.390Z,17.56
2018-06-25T00:23:39.382Z,17.56
2018-06-25T00:24:39.365Z,17.56
2018-06-25T00:25:39.455Z,17.56
2018-06-25T00:26:39.360Z,17.56
2018-06-25T00:27:39.365Z,17.56
2018-06-25T00:28:39.359Z,17.56
2018-06-25T00:29:39.431Z,17.62
2018-06-25T00:30:39.400Z,17.56
2018-06-25T00:31:39.364Z,17.62
2018-06-25T00:32:39.366Z,17.56
2018-06-25T00:33:39.425Z,17.62
2018-06-25T00:34:39.444Z,17.62
2018-06-25T00:35:39.455Z,17.62
2018-06-25T00:36:39.389Z,17.62
2018-06-25T00:37:39.394Z,17.5
2018-06-25T00:38:39.408Z,17.56
2018-06-25T00:39:39.574Z,17.5
2018-06-25T00:40:39.489Z,17.5
2018-06-25T00:41:39.419Z,17.5
2018-06-25T00:42:39.401Z,17.44
2018-06-25T00:43:39.372Z,17.5
2018-06-25T00:44:39.420Z,17.44
2018-06-25T00:45:39.369Z,17.44
2018-06-25T00:46:39.422Z,17.44
2018-06-25T00:47:39.463Z,17.37
2018-06-25T00:48:39.550Z,17.37
2018-06-25T00:49:39.392Z,17.44
2018-06-25T00:50:39.579Z,17.44
2018-06-25T00:51:39.419Z,17.44
2018-06-25T00:52:39.408Z,17.44
2018-06-25T00:53:39.429Z,17.44
2018-06-25T00:54:39.470Z,17.37
2018-06-25T00:55:39.361Z,17.44
2018-06-25T00:56:39.422Z,17.37
2018-06-25T00:57:39.438Z,17.44
2018-06-25T00:58:39.650Z,17.37
2018-06-25T00:59:39.510Z,17.37
2018-06-25T01:00:39.561Z,17.37
2018-06-25T01:01:40.507Z,17.31
2018-06-25T01:02:39.400Z,17.31
2018-06-25T01:03:39.403Z,17.31
2018-06-25T01:04:39.761Z,17.31
2018-06-25T01:05:39.413Z,17.31
2018-06-25T01:06:39.491Z,17.31
2018-06-25T01:07:39.420Z,17.31
2018-06-25T01:08:39.415Z,17.25
2018-06-25T01:09:39.409Z,17.25
2018-06-25T01:10:39.444Z,17.25
2018-06-25T01:11:39.412Z,17.19
2018-06-25T01:12:39.503Z,17.25
2018-06-25T01:13:39.402Z,17.19
2018-06-25T01:14:39.386Z,17.25
2018-06-25T01:15:39.461Z,17.25
2018-06-25T01:16:39.413Z,17.25
2018-06-25T01:17:39.407Z,17.25
2018-06-25T01:18:39.407Z,17.25
2018-06-25T01:19:39.490Z,17.25
2018-06-25T01:20:39.547Z,17.25
2018-06-25T01:21:39.521Z,17.25
2018-06-25T01:22:39.601Z,17.25
2018-06-25T01:23:39.485Z,17.25
2018-06-25T01:24:39.568Z,17.25
2018-06-25T01:25:39.426Z,17.19
2018-06-25T01:26:39.411Z,17.25
2018-06-25T01:27:39.416Z,17.25
2018-06-25T01:28:39.427Z,17.19
2018-06-25T01:29:39.427Z,17.12
2018-06-25T01:30:39.477Z,17.19
2018-06-25T01:31:39.484Z,17.19
2018-06-25T01:32:39.404Z,17.19
2018-06-25T01:33:39.420Z,17.19
2018-06-25T01:34:39.439Z,17.19
2018-06-25T01:35:39.425Z,17.19
2018-06-25T01:36:39.399Z,17.19
2018-06-25T01:37:39.398Z,17.19
2018-06-25T01:38:39.413Z,17.19
2018-06-25T01:39:39.454Z,17.19
2018-06-25T01:40:39.425Z,17.19
2018-06-25T01:41:39.427Z,17.19
2018-06-25T01:42:39.443Z,17.19
2018-06-25T01:43:39.577Z,17.19
2018-06-25T01:44:39.448Z,17.12
2018-06-25T01:45:39.460Z,17.19
2018-06-25T01:46:39.459Z,17.12
2018-06-25T01:47:39.502Z,17.12
2018-06-25T01:48:39.434Z,17.19
2018-06-25T01:49:39.449Z,17.12
2018-06-25T01:50:39.449Z,17.12
2018-06-25T01:51:39.439Z,17.12
2018-06-25T01:52:39.452Z,17.12
2018-06-25T01:53:39.540Z,17.12
2018-06-25T01:54:39.440Z,17.12
2018-06-25T01:55:39.459Z,17.06
2018-06-25T01:56:39.424Z,17.06
2018-06-25T01:57:39.589Z,17.06
2018-06-25T01:58:39.571Z,17
2018-06-25T01:59:39.457Z,16.94
2018-06-25T02:00:39.489Z,16.94
2018-06-25T02:01:39.448Z,17
2018-06-25T02:02:39.451Z,16.94
2018-06-25T02:03:39.484Z,17
2018-06-25T02:04:39.418Z,17
2018-06-25T02:05:39.447Z,17
2018-06-25T02:06:39.946Z,17
2018-06-25T02:07:39.425Z,17
2018-06-25T02:08:39.511Z,17
2018-06-25T02:09:39.496Z,17
2018-06-25T02:10:39.490Z,17
2018-06-25T02:11:39.439Z,17.06
2018-06-25T02:12:39.540Z,17
2018-06-25T02:13:39.438Z,17.06
2018-06-25T02:14:39.549Z,17.06
2018-06-25T02:15:39.615Z,17.12
2018-06-25T02:16:39.503Z,17.06
2018-06-25T02:17:39.457Z,17.06
2018-06-25T02:18:39.460Z,17.12
2018-06-25T02:19:39.515Z,17.12
2018-06-25T02:20:39.453Z,17.12
2018-06-25T02:21:40.151Z,17.06
2018-06-25T02:22:39.612Z,17.12
2018-06-25T02:23:39.507Z,17.12
2018-06-25T02:24:39.453Z,17.06
2018-06-25T02:25:39.487Z,17.06
2018-06-25T02:26:39.479Z,17.12
2018-06-25T02:27:39.445Z,17.12
2018-06-25T02:28:39.501Z,17.12
2018-06-25T02:29:39.455Z,17.12
2018-06-25T02:30:39.463Z,17.12
2018-06-25T02:31:39.462Z,17.12
2018-06-25T02:32:39.508Z,17.06
2018-06-25T02:33:39.487Z,17.12
2018-06-25T02:34:39.618Z,17.06
2018-06-25T02:35:39.493Z,17.06
2018-06-25T02:36:39.460Z,17.06
2018-06-25T02:37:39.459Z,17.06
2018-06-25T02:38:40.050Z,17.12
2018-06-25T02:39:39.461Z,17.12
2018-06-25T02:40:39.458Z,17.06
2018-06-25T02:41:39.498Z,17.06
2018-06-25T02:42:39.503Z,17.06
2018-06-25T02:43:39.501Z,17.12
2018-06-25T02:44:39.489Z,17.12
2018-06-25T02:45:39.464Z,17.06
2018-06-25T02:46:39.490Z,17.12
2018-06-25T02:47:39.479Z,17.12
2018-06-25T02:48:39.494Z,17.12
2018-06-25T02:49:39.507Z,17.12
2018-06-25T02:50:39.475Z,17.12
2018-06-25T02:51:39.481Z,17.12
2018-06-25T02:52:39.527Z,17.12
2018-06-25T02:53:39.523Z,17.06
2018-06-25T02:54:39.487Z,17.12
2018-06-25T02:55:39.471Z,17.06
2018-06-25T02:56:39.502Z,17.12
2018-06-25T02:57:39.590Z,17.06
2018-06-25T02:58:39.469Z,17.12
2018-06-25T02:59:39.582Z,17.06
2018-06-25T03:00:39.504Z,17
2018-06-25T03:01:39.576Z,17.06
2018-06-25T03:02:39.480Z,17
2018-06-25T03:03:39.475Z,17
2018-06-25T03:04:39.589Z,16.94
2018-06-25T03:05:39.526Z,16.87
2018-06-25T03:06:39.523Z,16.87
2018-06-25T03:07:39.482Z,16.87
2018-06-25T03:08:39.535Z,16.87
2018-06-25T03:09:39.516Z,16.87
2018-06-25T03:10:39.507Z,16.87
2018-06-25T03:11:39.527Z,16.87
2018-06-25T03:12:39.460Z,16.87
2018-06-25T03:13:39.501Z,16.87
2018-06-25T03:14:39.488Z,16.81
2018-06-25T03:15:39.625Z,16.81
2018-06-25T03:16:39.492Z,16.81
2018-06-25T03:17:39.520Z,16.81
2018-06-25T03:18:39.475Z,16.81
2018-06-25T03:19:39.623Z,16.75
2018-06-25T03:20:39.486Z,16.75
2018-06-25T03:21:39.493Z,16.75
2018-06-25T03:22:39.520Z,16.75
2018-06-25T03:23:39.516Z,16.75
2018-06-25T03:24:39.588Z,16.75
2018-06-25T03:25:39.476Z,16.75
2018-06-25T03:26:39.503Z,16.75
2018-06-25T03:27:39.468Z,16.75
2018-06-25T03:28:39.582Z,16.75
2018-06-25T03:29:39.503Z,16.69
2018-06-25T03:30:39.558Z,16.69
2018-06-25T03:31:39.527Z,16.69
2018-06-25T03:32:39.505Z,16.62
2018-06-25T03:33:39.514Z,16.62
2018-06-25T03:34:39.521Z,16.56
2018-06-25T03:35:39.487Z,16.5
2018-06-25T03:36:39.877Z,16.5
2018-06-25T03:37:39.500Z,16.5
2018-06-25T03:38:39.535Z,16.5
2018-06-25T03:39:39.513Z,16.5
2018-06-25T03:40:39.567Z,16.5
2018-06-25T03:41:39.481Z,16.56
2018-06-25T03:42:39.698Z,16.56
2018-06-25T03:43:39.552Z,16.5
2018-06-25T03:44:39.509Z,16.5
2018-06-25T03:45:39.520Z,16.5
2018-06-25T03:46:39.529Z,16.44
2018-06-25T03:47:39.504Z,16.5
2018-06-25T03:48:39.544Z,16.5
2018-06-25T03:49:39.524Z,16.5
2018-06-25T03:50:39.554Z,16.5
2018-06-25T03:51:39.570Z,16.5
2018-06-25T03:52:39.535Z,16.5
2018-06-25T03:53:39.521Z,16.56
2018-06-25T03:54:39.526Z,16.56
2018-06-25T03:55:39.553Z,16.56
2018-06-25T03:56:39.540Z,16.5
2018-06-25T03:57:39.539Z,16.5
2018-06-25T03:58:39.520Z,16.5
2018-06-25T03:59:39.509Z,16.5
2018-06-25T04:00:39.511Z,16.56
2018-06-25T04:01:39.556Z,16.5
2018-06-25T04:02:39.624Z,16.56
2018-06-25T04:03:39.521Z,16.5
2018-06-25T04:04:39.691Z,16.5
2018-06-25T04:05:39.502Z,16.5
2018-06-25T04:06:39.540Z,16.5
2018-06-25T04:07:39.524Z,16.5
2018-06-25T04:08:39.553Z,16.5
2018-06-25T04:09:39.576Z,16.5
2018-06-25T04:10:39.584Z,16.5
2018-06-25T04:11:39.575Z,16.44
2018-06-25T04:12:39.618Z,16.44
2018-06-25T04:13:39.517Z,16.44
2018-06-25T04:14:39.594Z,16.44
2018-06-25T04:15:39.505Z,16.44
2018-06-25T04:16:39.501Z,16.44
2018-06-25T04:17:39.563Z,16.44
2018-06-25T04:18:39.579Z,16.37
2018-06-25T04:19:39.589Z,16.44
2018-06-25T04:20:40.021Z,16.44
2018-06-25T04:21:39.569Z,16.44
2018-06-25T04:22:39.566Z,16.37
2018-06-25T04:23:39.964Z,16.37
2018-06-25T04:24:39.871Z,16.37
2018-06-25T04:25:39.560Z,16.37
2018-06-25T04:26:39.521Z,16.37
2018-06-25T04:27:39.538Z,16.37
2018-06-25T04:28:39.613Z,16.44
2018-06-25T04:29:39.692Z,16.37
2018-06-25T04:30:40.064Z,16.44
2018-06-25T04:31:39.519Z,16.44
2018-06-25T04:32:39.578Z,16.44
2018-06-25T04:33:39.544Z,16.44
2018-06-25T04:34:39.544Z,16.44
2018-06-25T04:35:39.698Z,16.44
2018-06-25T04:36:39.657Z,16.44
2018-06-25T04:37:39.543Z,16.37
2018-06-25T04:38:39.549Z,16.44
2018-06-25T04:39:39.755Z,16.37
2018-06-25T04:40:39.537Z,16.44
2018-06-25T04:41:39.536Z,16.44
2018-06-25T04:42:39.538Z,16.44
2018-06-25T04:43:39.558Z,16.44
2018-06-25T04:44:39.586Z,16.44
2018-06-25T04:45:39.622Z,16.44
2018-06-25T04:46:39.604Z,16.44
2018-06-25T04:47:39.531Z,16.44
2018-06-25T04:48:39.750Z,16.44
2018-06-25T04:49:39.693Z,16.44
2018-06-25T04:50:39.520Z,16.44
2018-06-25T04:51:39.588Z,16.44
2018-06-25T04:52:39.534Z,16.44
2018-06-25T04:53:39.515Z,16.44
2018-06-25T04:54:39.535Z,16.5
2018-06-25T04:55:39.527Z,16.44
2018-06-25T04:56:39.537Z,16.5
2018-06-25T04:57:39.629Z,16.44
2018-06-25T04:58:39.600Z,16.44
2018-06-25T04:59:39.571Z,16.44
2018-06-25T05:00:39.544Z,16.37
2018-06-25T05:01:39.590Z,16.37
2018-06-25T05:02:39.534Z,16.37
2018-06-25T05:03:39.551Z,16.37
2018-06-25T05:04:39.554Z,16.31
2018-06-25T05:05:39.541Z,16.37
2018-06-25T05:06:39.529Z,16.25
2018-06-25T05:07:39.555Z,16.31
2018-06-25T05:08:39.556Z,16.37
2018-06-25T05:09:39.576Z,16.31
2018-06-25T05:10:39.577Z,16.37
2018-06-25T05:11:39.605Z,16.37
2018-06-25T05:12:39.709Z,16.31
2018-06-25T05:13:39.585Z,16.37
2018-06-25T05:14:39.595Z,16.37
2018-06-25T05:15:39.573Z,16.37
2018-06-25T05:16:39.601Z,16.37
2018-06-25T05:17:39.537Z,16.37
2018-06-25T05:18:39.549Z,16.37
2018-06-25T05:19:39.573Z,16.37
2018-06-25T05:20:39.600Z,16.31
2018-06-25T05:21:39.677Z,16.31
2018-06-25T05:22:39.584Z,16.37
2018-06-25T05:23:40.096Z,16.37
2018-06-25T05:24:39.553Z,16.44
2018-06-25T05:25:39.597Z,16.44
2018-06-25T05:26:39.687Z,16.44
2018-06-25T05:27:39.574Z,16.44
2018-06-25T05:28:39.614Z,16.5
2018-06-25T05:29:39.600Z,16.5
2018-06-25T05:30:39.786Z,16.44
2018-06-25T05:31:39.600Z,16.5
2018-06-25T05:32:39.732Z,16.5
2018-06-25T05:33:39.589Z,16.56
2018-06-25T05:34:39.732Z,16.5
2018-06-25T05:35:39.663Z,16.56
2018-06-25T05:36:39.738Z,16.56
2018-06-25T05:37:39.558Z,16.56
2018-06-25T05:38:39.562Z,16.56
2018-06-25T05:39:39.934Z,16.56
2018-06-25T05:40:39.580Z,16.56
2018-06-25T05:41:39.581Z,16.56
2018-06-25T05:42:39.683Z,16.56
2018-06-25T05:43:39.573Z,16.56
2018-06-25T05:44:39.574Z,16.62
2018-06-25T05:45:39.583Z,16.56
2018-06-25T05:46:39.587Z,16.69
2018-06-25T05:47:39.602Z,16.56
2018-06-25T05:48:39.627Z,16.62
2018-06-25T05:49:39.632Z,16.62
2018-06-25T05:50:39.613Z,16.62
2018-06-25T05:51:39.575Z,16.75
2018-06-25T05:52:39.570Z,16.69
2018-06-25T05:53:39.640Z,16.62
2018-06-25T05:54:39.596Z,16.75
2018-06-25T05:55:39.637Z,16.69
2018-06-25T05:56:39.597Z,16.69
2018-06-25T05:57:39.589Z,16.75
2018-06-25T05:58:39.764Z,16.62
2018-06-25T05:59:39.711Z,16.69
2018-06-25T06:00:39.579Z,16.62
2018-06-25T06:01:39.593Z,16.69
2018-06-25T06:02:39.892Z,16.69
2018-06-25T06:03:39.602Z,16.69
2018-06-25T06:04:39.607Z,16.69
2018-06-25T06:05:39.622Z,16.69
2018-06-25T06:06:39.607Z,16.75
2018-06-25T06:07:39.617Z,16.75
2018-06-25T06:08:39.582Z,16.62
2018-06-25T06:09:39.595Z,16.62
2018-06-25T06:10:39.579Z,16.62
2018-06-25T06:11:39.755Z,16.62
2018-06-25T06:12:39.662Z,16.62
2018-06-25T06:13:40.788Z,16.62
2018-06-25T06:14:40.803Z,16.69
2018-06-25T06:15:39.641Z,16.69
2018-06-25T06:16:39.587Z,16.69
2018-06-25T06:17:39.705Z,16.69
2018-06-25T06:18:39.696Z,16.69
2018-06-25T06:19:39.717Z,16.69
2018-06-25T06:20:39.623Z,16.69
2018-06-25T06:21:39.908Z,16.69
2018-06-25T06:22:39.638Z,16.62
2018-06-25T06:23:39.608Z,16.62
2018-06-25T06:24:39.738Z,16.62
2018-06-25T06:25:39.590Z,16.62
2018-06-25T06:26:39.757Z,16.69
2018-06-25T06:27:39.775Z,16.69
2018-06-25T06:28:39.614Z,16.62
2018-06-25T06:29:39.788Z,16.69
2018-06-25T06:30:39.809Z,16.69
2018-06-25T06:31:40.209Z,16.69
2018-06-25T06:32:40.721Z,16.69
2018-06-25T06:33:39.808Z,16.69
2018-06-25T06:34:39.684Z,16.69
2018-06-25T06:35:39.708Z,16.75
2018-06-25T06:36:39.621Z,16.75
2018-06-25T06:37:39.832Z,16.75
2018-06-25T06:38:39.748Z,16.75
2018-06-25T06:39:39.835Z,16.75
2018-06-25T06:40:39.771Z,16.75
2018-06-25T06:41:39.861Z,16.75
2018-06-25T06:42:39.703Z,16.81
2018-06-25T06:43:39.769Z,16.81
2018-06-25T06:44:39.756Z,16.81
2018-06-25T06:45:39.671Z,16.81
2018-06-25T06:46:39.885Z,16.81
2018-06-25T06:47:39.790Z,16.81
2018-06-25T06:48:39.777Z,16.87
2018-06-25T06:49:39.792Z,16.87
2018-06-25T06:50:39.699Z,16.87
2018-06-25T06:51:39.726Z,16.87
2018-06-25T06:52:39.719Z,16.87
2018-06-25T06:53:54.607Z,16.87
2018-06-25T06:54:39.747Z,16.94
2018-06-25T06:55:39.639Z,16.87
2018-06-25T06:57:40.090Z,16.94
2018-06-25T06:58:39.617Z,16.94
2018-06-25T06:59:39.619Z,16.94
2018-06-25T07:00:39.813Z,17
2018-06-25T07:01:39.630Z,16.94
2018-06-25T07:02:39.891Z,16.94
2018-06-25T07:03:39.660Z,17
2018-06-25T07:04:40.028Z,17
2018-06-25T07:05:39.727Z,17
2018-06-25T07:06:39.625Z,16.94
2018-06-25T07:07:39.627Z,16.94
2018-06-25T07:08:39.765Z,16.94
2018-06-25T07:09:39.779Z,16.94
2018-06-25T07:10:39.679Z,17
2018-06-25T07:11:39.834Z,16.94
2018-06-25T07:12:39.800Z,17
2018-06-25T07:13:39.649Z,17
2018-06-25T07:14:39.612Z,17
2018-06-25T07:15:39.814Z,17.06
2018-06-25T07:16:39.637Z,17.06
2018-06-25T07:17:39.698Z,17.19
2018-06-25T07:18:39.674Z,17.12
2018-06-25T07:19:39.646Z,17.12
2018-06-25T07:20:39.964Z,17.12
2018-06-25T07:21:39.654Z,17
2018-06-25T07:22:39.775Z,17.06
2018-06-25T07:23:39.639Z,17.06
2018-06-25T07:24:39.850Z,17.12
2018-06-25T07:25:39.681Z,17.19
2018-06-25T07:26:39.656Z,17.06
2018-06-25T07:27:39.650Z,17.06
2018-06-25T07:28:39.625Z,17.06
2018-06-25T07:29:39.650Z,17.06
2018-06-25T07:30:39.738Z,17.12
2018-06-25T07:31:39.649Z,17.12
2018-06-25T07:32:39.630Z,17.19
2018-06-25T07:33:39.645Z,17.19
2018-06-25T07:34:39.624Z,17.25
2018-06-25T07:35:39.687Z,17.25
2018-06-25T07:36:39.631Z,17.25
2018-06-25T07:37:39.643Z,17.25
2018-06-25T07:38:39.654Z,17.25
2018-06-25T07:39:39.683Z,17.37
2018-06-25T07:40:39.715Z,17.37
2018-06-25T07:41:39.712Z,17.37
2018-06-25T07:42:39.660Z,17.37
2018-06-25T07:43:39.643Z,17.44
2018-06-25T07:44:39.871Z,17.44
2018-06-25T07:45:39.648Z,17.37
2018-06-25T07:46:39.659Z,17.44
2018-06-25T07:47:39.742Z,17.44
2018-06-25T07:48:39.692Z,17.5
2018-06-25T07:49:39.667Z,17.5
2018-06-25T07:50:39.669Z,17.56
2018-06-25T07:51:39.680Z,17.62
2018-06-25T07:52:39.650Z,17.62
2018-06-25T07:53:40.193Z,17.62
2018-06-25T07:54:39.667Z,17.62
2018-06-25T07:55:39.679Z,17.62
2018-06-25T07:56:39.808Z,17.69
2018-06-25T07:57:39.730Z,17.69
2018-06-25T07:58:39.695Z,17.75
2018-06-25T07:59:39.692Z,17.75
2018-06-25T08:00:39.648Z,17.69
2018-06-25T08:01:39.760Z,17.75
2018-06-25T08:02:39.677Z,17.75
2018-06-25T08:03:40.168Z,17.75
2018-06-25T08:04:39.685Z,17.75
2018-06-25T08:05:39.681Z,17.81
2018-06-25T08:06:39.680Z,17.81
2018-06-25T08:07:39.682Z,17.87
2018-06-25T08:08:39.835Z,17.87
2018-06-25T08:09:39.851Z,17.94
2018-06-25T08:10:39.947Z,17.94
2018-06-25T08:11:39.757Z,17.94
2018-06-25T08:12:39.746Z,17.94
2018-06-25T08:13:39.856Z,17.94
2018-06-25T08:14:39.683Z,18
2018-06-25T08:15:39.853Z,18
2018-06-25T08:16:40.770Z,18
2018-06-25T08:17:39.679Z,17.94
2018-06-25T08:18:39.900Z,17.94
2018-06-25T08:19:39.710Z,17.94
2018-06-25T08:20:39.912Z,17.94
2018-06-25T08:21:39.821Z,17.94
2018-06-25T08:22:39.676Z,17.94
2018-06-25T08:23:39.664Z,17.87
2018-06-25T08:24:39.668Z,17.94
2018-06-25T08:25:39.669Z,17.94
2018-06-25T08:26:39.732Z,17.94
2018-06-25T08:27:39.841Z,17.94
2018-06-25T08:28:39.678Z,17.94
2018-06-25T08:29:40.162Z,17.94
2018-06-25T08:30:39.731Z,17.94
2018-06-25T08:31:39.889Z,17.94
2018-06-25T08:32:39.671Z,18
2018-06-25T08:33:39.649Z,17.94
2018-06-25T08:34:39.689Z,18
2018-06-25T08:35:39.679Z,18
2018-06-25T08:36:39.699Z,18
2018-06-25T08:37:39.884Z,18.06
2018-06-25T08:38:39.668Z,18.12
2018-06-25T08:39:39.672Z,18.12
2018-06-25T08:40:39.672Z,18.25
2018-06-25T08:41:39.860Z,18.19
2018-06-25T08:42:39.753Z,18.25
2018-06-25T08:43:39.905Z,18.44
2018-06-25T08:44:39.878Z,18.44
2018-06-25T08:45:39.697Z,18.5
2018-06-25T08:46:39.716Z,18.5
2018-06-25T08:47:39.695Z,18.5
2018-06-25T08:48:39.699Z,18.5
2018-06-25T08:49:40.936Z,18.56
2018-06-25T08:50:39.714Z,18.56
2018-06-25T08:51:40.116Z,18.56
2018-06-25T08:52:39.686Z,18.62
2018-06-25T08:53:39.732Z,18.69
2018-06-25T08:54:39.743Z,18.81
2018-06-25T08:55:39.886Z,18.75
2018-06-25T08:56:39.727Z,18.75
2018-06-25T08:57:39.693Z,18.81
2018-06-25T08:58:39.803Z,18.87
2018-06-25T08:59:39.706Z,18.87
2018-06-25T09:00:39.708Z,18.94
2018-06-25T09:01:39.731Z,18.94
2018-06-25T09:02:39.796Z,19
2018-06-25T09:03:39.702Z,19.19
2018-06-25T09:04:39.810Z,19.19
2018-06-25T09:05:39.761Z,19.19
2018-06-25T09:06:39.730Z,19.12
2018-06-25T09:07:39.740Z,19.12
2018-06-25T09:08:39.737Z,19.19
2018-06-25T09:09:40.396Z,19.12
2018-06-25T09:10:39.730Z,19.19
2018-06-25T09:11:39.787Z,19.19
2018-06-25T09:12:39.685Z,19.19
2018-06-25T09:13:39.729Z,19.19
2018-06-25T09:14:39.887Z,19.31
2018-06-25T09:15:39.954Z,19.31
2018-06-25T09:16:39.697Z,19.31
2018-06-25T09:17:39.880Z,19.31
2018-06-25T09:18:39.755Z,19.31
2018-06-25T09:19:39.707Z,19.37
2018-06-25T09:20:39.701Z,19.37
2018-06-25T09:21:39.708Z,19.37
2018-06-25T09:22:39.909Z,19.37
2018-06-25T09:23:39.733Z,19.31
2018-06-25T09:24:39.727Z,19.31
2018-06-25T09:25:39.724Z,19.31
2018-06-25T09:26:39.705Z,19.37
2018-06-25T09:27:40.450Z,19.44
2018-06-25T09:28:39.742Z,19.44
2018-06-25T09:29:39.870Z,19.62
2018-06-25T09:30:39.729Z,19.69
2018-06-25T09:31:39.908Z,19.62
2018-06-25T09:32:39.725Z,19.69
2018-06-25T09:33:39.723Z,19.75
2018-06-25T09:34:39.900Z,19.69
2018-06-25T09:35:39.726Z,19.75
2018-06-25T09:36:39.763Z,19.75
2018-06-25T09:37:39.847Z,19.75
2018-06-25T09:38:39.723Z,19.75
2018-06-25T09:39:39.730Z,19.81
2018-06-25T09:40:39.731Z,19.87
2018-06-25T09:41:41.701Z,19.81
2018-06-25T09:42:39.738Z,19.87
2018-06-25T09:43:39.745Z,19.87
2018-06-25T09:44:39.725Z,19.81
2018-06-25T09:45:39.739Z,19.81
2018-06-25T09:46:39.875Z,19.75
2018-06-25T09:47:39.715Z,19.75
2018-06-25T09:48:39.719Z,19.81
2018-06-25T09:49:39.826Z,19.75
2018-06-25T09:50:39.755Z,19.75
2018-06-25T09:51:39.743Z,19.81
2018-06-25T09:52:39.722Z,19.81
2018-06-25T09:53:39.758Z,19.81
2018-06-25T09:54:39.907Z,19.81
2018-06-25T09:55:39.762Z,19.94
2018-06-25T09:56:39.751Z,20
2018-06-25T09:57:39.756Z,20
2018-06-25T09:58:39.783Z,20.06
2018-06-25T09:59:39.784Z,20.12
2018-06-25T10:00:39.758Z,20.19
2018-06-25T10:01:39.780Z,20
2018-06-25T10:02:39.765Z,19.94
2018-06-25T10:03:39.745Z,20
2018-06-25T10:04:40.039Z,20
2018-06-25T10:05:39.901Z,19.94
2018-06-25T10:06:39.840Z,20
2018-06-25T10:07:39.834Z,20.06
2018-06-25T10:08:40.103Z,20.06
2018-06-25T10:09:40.019Z,20.06
2018-06-25T10:10:40.489Z,20
2018-06-25T10:11:39.838Z,20.12
2018-06-25T10:12:39.871Z,20.06
2018-06-25T10:13:39.881Z,20.12
2018-06-25T10:14:39.779Z,20.12
2018-06-25T10:15:39.760Z,20.12
2018-06-25T10:16:40.133Z,19.94
2018-06-25T10:17:39.764Z,19.94
2018-06-25T10:18:39.849Z,19.94
2018-06-25T10:19:40.022Z,20.06
2018-06-25T10:20:39.834Z,20.06
2018-06-25T10:21:39.907Z,20.06
2018-06-25T10:22:39.804Z,20.19
2018-06-25T10:23:39.763Z,20.19
2018-06-25T10:24:39.755Z,20.31
2018-06-25T10:25:39.922Z,20.37
2018-06-25T10:26:39.863Z,20.31
2018-06-25T10:27:39.788Z,20.37
2018-06-25T10:28:39.780Z,20.44
2018-06-25T10:29:39.825Z,20.37
2018-06-25T10:30:39.798Z,20.44
2018-06-25T10:31:39.900Z,20.44
2018-06-25T10:32:39.842Z,20.5
2018-06-25T10:33:39.768Z,20.5
2018-06-25T10:34:40.001Z,20.5
2018-06-25T10:35:39.769Z,20.56
2018-06-25T10:36:39.767Z,20.5
2018-06-25T10:37:39.893Z,20.44
2018-06-25T10:38:39.947Z,20.56
2018-06-25T10:39:39.911Z,20.44
2018-06-25T10:40:39.858Z,20.37
2018-06-25T10:41:39.816Z,20.37
2018-06-25T10:42:40.881Z,20.31
2018-06-25T10:43:39.778Z,20.31
2018-06-25T10:44:40.202Z,20.31
2018-06-25T10:45:39.777Z,20.31
2018-06-25T10:46:39.849Z,20.37
2018-06-25T10:47:39.801Z,20.44
2018-06-25T10:48:39.809Z,20.5
2018-06-25T10:49:39.844Z,20.62
2018-06-25T10:50:39.896Z,20.62
2018-06-25T10:51:39.816Z,20.62
2018-06-25T10:52:39.784Z,20.69
2018-06-25T10:53:39.804Z,20.75
2018-06-25T10:54:39.785Z,20.75
2018-06-25T10:55:39.787Z,20.69
2018-06-25T10:56:39.764Z,20.69
2018-06-25T10:57:39.831Z,20.75
2018-06-25T10:58:39.879Z,20.75
2018-06-25T10:59:41.416Z,20.75
2018-06-25T11:00:39.791Z,20.69
2018-06-25T11:01:39.798Z,20.56
2018-06-25T11:02:39.814Z,20.5
2018-06-25T11:03:39.777Z,20.5
2018-06-25T11:04:39.819Z,20.5
2018-06-25T11:05:39.974Z,20.56
2018-06-25T11:06:39.869Z,20.62
2018-06-25T11:07:41.992Z,20.62
2018-06-25T11:08:39.867Z,20.62
2018-06-25T11:09:39.850Z,20.62
2018-06-25T11:10:39.763Z,20.69
2018-06-25T11:11:39.776Z,20.56
2018-06-25T11:12:40.225Z,20.5
2018-06-25T11:13:39.811Z,20.5
2018-06-25T11:14:39.820Z,20.44
2018-06-25T11:15:39.867Z,20.5
2018-06-25T11:16:39.798Z,20.56
2018-06-25T11:17:39.831Z,20.56
2018-06-25T11:18:39.819Z,20.56
2018-06-25T11:19:39.850Z,20.56
2018-06-25T11:20:39.808Z,20.62
2018-06-25T11:21:39.790Z,20.69
2018-06-25T11:22:39.807Z,20.69
2018-06-25T11:23:39.804Z,20.81
2018-06-25T11:24:39.776Z,20.75
2018-06-25T11:25:39.802Z,20.75
2018-06-25T11:26:40.344Z,20.88
2018-06-25T11:27:41.206Z,20.88
2018-06-25T11:28:39.925Z,20.88
2018-06-25T11:29:39.848Z,21
2018-06-25T11:30:39.806Z,21.06
2018-06-25T11:31:39.834Z,21.12
2018-06-25T11:32:39.816Z,21.19
2018-06-25T11:33:39.811Z,21.37
2018-06-25T11:34:41.079Z,21.44
2018-06-25T11:35:39.836Z,21.44
2018-06-25T11:36:39.949Z,21.37
2018-06-25T11:37:39.914Z,21.31
2018-06-25T11:38:39.814Z,21.31
2018-06-25T11:39:39.810Z,21.37
2018-06-25T11:40:39.861Z,21.44
2018-06-25T11:41:39.824Z,21.5
2018-06-25T11:42:40.046Z,21.5
2018-06-25T11:43:39.867Z,21.5
2018-06-25T11:44:40.009Z,21.44
2018-06-25T11:45:39.806Z,21.37
2018-06-25T11:46:39.984Z,21.31
2018-06-25T11:47:39.917Z,21.25
2018-06-25T11:48:39.822Z,21.25
2018-06-25T11:49:39.835Z,21.12
2018-06-25T11:50:39.839Z,21.12
2018-06-25T11:51:40.270Z,21.19
2018-06-25T11:52:39.839Z,21.19
2018-06-25T11:53:39.844Z,21.19
2018-06-25T11:54:39.865Z,21.25
2018-06-25T11:55:40.080Z,21.19
2018-06-25T11:56:39.832Z,21.25
2018-06-25T11:57:39.806Z,21.25
2018-06-25T11:58:39.814Z,21.31
2018-06-25T11:59:39.795Z,21.25
2018-06-25T12:00:39.907Z,21.25
2018-06-25T12:01:40.182Z,21.25
2018-06-25T12:02:41.861Z,21.25
2018-06-25T12:03:39.850Z,21.31
2018-06-25T12:04:39.825Z,21.37
2018-06-25T12:05:39.843Z,21.31
2018-06-25T12:06:39.846Z,21.12
2018-06-25T12:07:39.840Z,21.12
2018-06-25T12:08:39.949Z,21.19
2018-06-25T12:09:39.894Z,21.19
2018-06-25T12:10:40.503Z,21.19
2018-06-25T12:11:39.967Z,21.31
2018-06-25T12:12:40.108Z,21.44
2018-06-25T12:13:40.256Z,21.5
2018-06-25T12:14:39.835Z,21.56
2018-06-25T12:15:39.924Z,21.62
2018-06-25T12:16:40.001Z,21.62
2018-06-25T12:17:39.914Z,21.56
2018-06-25T12:18:39.855Z,21.56
2018-06-25T12:19:40.374Z,21.5
2018-06-25T12:20:39.830Z,21.37
2018-06-25T12:21:40.040Z,21.31
2018-06-25T12:22:39.904Z,21.31
2018-06-25T12:23:40.271Z,21.37
2018-06-25T12:24:39.936Z,21.37
2018-06-25T12:25:39.893Z,21.5
2018-06-25T12:26:39.868Z,21.56
2018-06-25T12:27:40.367Z,21.56
2018-06-25T12:28:39.919Z,21.62
2018-06-25T12:29:40.492Z,21.62
2018-06-25T12:30:39.999Z,21.62
2018-06-25T12:31:40.020Z,21.69
2018-06-25T12:32:39.872Z,21.69
2018-06-25T12:33:39.869Z,21.69
2018-06-25T12:34:40.218Z,21.75
2018-06-25T12:35:39.857Z,21.69
2018-06-25T12:36:40.243Z,21.69
2018-06-25T12:37:40.217Z,21.62
2018-06-25T12:38:40.381Z,21.69
2018-06-25T12:39:39.859Z,21.69
2018-06-25T12:40:39.930Z,21.69
2018-06-25T12:41:39.901Z,21.75
2018-06-25T12:42:39.897Z,21.69
2018-06-25T12:43:39.858Z,21.62
2018-06-25T12:44:39.829Z,21.56
2018-06-25T12:45:39.881Z,21.62
2018-06-25T12:46:39.879Z,21.56
2018-06-25T12:47:39.909Z,21.56
2018-06-25T12:48:40.040Z,21.56
2018-06-25T12:49:39.895Z,21.56
2018-06-25T12:50:39.908Z,21.62
2018-06-25T12:51:39.889Z,21.62
2018-06-25T12:52:39.859Z,21.75
2018-06-25T12:53:39.925Z,21.75
2018-06-25T12:54:39.897Z,21.81
2018-06-25T12:55:39.868Z,21.75
2018-06-25T12:56:39.882Z,21.75
2018-06-25T12:57:40.185Z,21.75
2018-06-25T12:58:39.993Z,21.81
2018-06-25T12:59:40.199Z,21.81